createdAt,value
2023-11-02T00:02:30.867Z,98955.70
2023-11-02T00:05:00.080Z,98957.83
2023-11-02T00:07:32.768Z,98952.75
2023-11-02T00:10:04.647Z,98944.18
2023-11-02T00:12:35.414Z,98938.66
2023-11-02T00:15:08.362Z,98936.41
2023-11-02T00:17:52.338Z,98938.39
2023-11-02T00:20:39.201Z,98938.30
2023-11-02T00:23:13.856Z,98937.70
2023-11-02T00:25:51.109Z,98933.21
2023-11-02T00:28:22.079Z,98938.33
2023-11-02T00:30:53.136Z,98937.11
2023-11-02T00:33:24.795Z,98931.25
2023-11-02T00:35:56.275Z,98929.58
2023-11-02T00:38:29.553Z,98926.91
2023-11-02T00:41:00.781Z,98930.69
2023-11-02T00:43:32.352Z,98930.39
2023-11-02T00:46:03.338Z,98921.66
2023-11-02T00:48:35.966Z,98914.61
2023-11-02T00:51:21.029Z,98912.76
2023-11-02T00:53:55.613Z,98915.77
2023-11-02T00:56:29.687Z,98909.36
2023-11-02T00:59:01.563Z,98893.75
2023-11-02T01:01:33.042Z,98890.28
2023-11-02T01:04:08.598Z,98891.57
2023-11-02T01:06:39.873Z,98891.24
2023-11-02T01:09:45.751Z,98885.89
2023-11-02T01:12:25.658Z,98873.80
2023-11-02T01:14:57.026Z,98867.74
2023-11-02T01:17:34.083Z,98865.00
2023-11-02T01:20:11.290Z,98855.64
2023-11-02T01:23:04.317Z,98845.90
2023-11-02T01:25:45.839Z,98843.60
2023-11-02T01:28:19.638Z,98840.96
2023-11-02T01:31:16.194Z,98836.27
2023-11-02T01:34:01.452Z,98835.14
2023-11-02T01:36:37.689Z,98837.00
2023-11-02T01:39:47.752Z,98839.70
2023-11-02T01:42:27.241Z,98842.27
2023-11-02T01:45:10.405Z,98848.01
2023-11-02T01:48:00.355Z,98846.24
2023-11-02T01:50:36.370Z,98846.36
2023-11-02T01:53:26.418Z,98851.75
2023-11-02T01:56:17.811Z,98848.77
2023-11-02T01:59:05.181Z,98851.29
2023-11-02T02:01:44.621Z,98849.53
2023-11-02T02:04:24.130Z,98836.41
2023-11-02T02:07:06.819Z,98840.38
2023-11-02T02:10:06.705Z,98845.22
2023-11-02T02:12:51.087Z,98842.91
2023-11-02T02:15:27.629Z,98842.29
2023-11-02T02:18:06.799Z,98839.15
2023-11-02T02:20:39.694Z,98832.38
2023-11-02T02:23:16.959Z,98834.80
2023-11-02T02:26:00.490Z,98841.00
2023-11-02T02:29:06.602Z,98842.02
2023-11-02T02:32:00.237Z,98839.22
2023-11-02T02:35:02.588Z,98837.58
2023-11-02T02:37:36.681Z,98832.13
2023-11-02T02:40:14.280Z,98830.48
2023-11-02T02:42:47.760Z,98822.87
2023-11-02T02:45:19.194Z,98818.62
2023-11-02T02:47:53.051Z,98812.70
2023-11-02T02:50:29.400Z,98810.75
2023-11-02T02:53:02.012Z,98800.02
2023-11-02T02:55:35.768Z,98787.70
2023-11-02T02:58:10.878Z,98780.02
2023-11-02T03:00:44.360Z,98773.27
2023-11-02T03:03:17.506Z,98768.99
2023-11-02T03:05:48.366Z,98768.40
2023-11-02T03:08:20.130Z,98779.59
2023-11-02T03:10:53.193Z,98785.84
2023-11-02T03:13:29.539Z,98789.16
2023-11-02T03:16:08.750Z,98788.95
2023-11-02T03:18:41.075Z,98788.08
2023-11-02T03:21:12.343Z,98780.59
2023-11-02T03:23:59.677Z,98779.63
2023-11-02T03:26:39.538Z,98769.52
2023-11-02T03:29:20.248Z,98760.39
2023-11-02T03:31:59.609Z,98767.23
2023-11-02T03:34:39.434Z,98762.23
2023-11-02T03:37:17.923Z,98757.33
2023-11-02T03:40:09.241Z,98751.73
2023-11-02T03:42:51.459Z,98748.95
2023-11-02T03:45:34.124Z,98742.53
2023-11-02T03:48:13.253Z,98741.84
2023-11-02T03:50:53.279Z,98733.83
2023-11-02T03:53:36.087Z,98726.27
2023-11-02T03:56:19.215Z,98719.80
2023-11-02T03:59:03.144Z,98712.10
2023-11-02T04:01:41.453Z,98712.96
2023-11-02T04:04:17.235Z,98710.01
2023-11-02T04:06:54.114Z,98707.92
2023-11-02T04:09:27.003Z,98706.91
2023-11-02T04:12:15.318Z,98700.36
2023-11-02T04:14:46.795Z,98691.98
2023-11-02T04:17:17.565Z,98691.16
2023-11-02T04:19:48.450Z,98678.97
2023-11-02T04:22:19.302Z,98669.60
2023-11-02T04:24:50.216Z,98669.50
2023-11-02T04:27:21.074Z,98664.38
2023-11-02T04:29:51.929Z,98652.42
2023-11-02T04:32:22.903Z,98646.57
2023-11-02T04:34:54.000Z,98644.30
2023-11-02T04:37:24.604Z,98638.86
2023-11-02T04:39:55.610Z,98638.19
2023-11-02T04:42:26.359Z,98639.08
2023-11-02T04:44:57.402Z,98635.71
2023-11-02T04:47:28.163Z,98635.34
2023-11-02T04:50:00.248Z,98630.99
2023-11-02T04:52:39.192Z,98627.30
2023-11-02T04:55:10.783Z,98615.52
2023-11-02T04:57:41.600Z,98600.29
2023-11-02T05:00:15.131Z,98594.20
2023-11-02T05:02:46.037Z,98595.93
2023-11-02T05:05:17.009Z,98595.89
2023-11-02T05:07:47.641Z,98585.23
2023-11-02T05:10:18.269Z,98586.56
2023-11-02T05:12:48.981Z,98584.71
2023-11-02T05:15:19.654Z,98579.25
2023-11-02T05:17:50.358Z,98579.55
2023-11-02T05:20:24.783Z,98567.25
2023-11-02T05:22:55.450Z,98567.23
2023-11-02T05:25:26.182Z,98556.56
2023-11-02T05:27:56.945Z,98555.38
2023-11-02T05:30:27.827Z,98552.21
2023-11-02T05:32:58.473Z,98551.13
2023-11-02T05:35:29.303Z,98545.55
2023-11-02T05:38:01.559Z,98539.59
2023-11-02T05:40:32.230Z,98535.37
2023-11-02T05:43:02.953Z,98533.04
2023-11-02T05:45:36.563Z,98531.66
2023-11-02T05:48:08.078Z,98535.13
2023-11-02T05:50:40.051Z,98524.63
2023-11-02T05:53:10.800Z,98523.70
2023-11-02T05:55:41.667Z,98522.36
2023-11-02T05:58:12.462Z,98522.98
2023-11-02T06:00:43.266Z,98518.70
2023-11-02T06:03:14.070Z,98516.25
2023-11-02T06:05:44.841Z,98512.08
2023-11-02T06:08:15.850Z,98509.27
2023-11-02T06:10:47.564Z,98506.02
2023-11-02T06:13:18.312Z,98511.31
2023-11-02T06:15:49.143Z,98508.64
2023-11-02T06:18:19.906Z,98504.50
2023-11-02T06:20:50.607Z,98506.81
2023-11-02T06:23:25.546Z,98509.41
2023-11-02T06:25:56.418Z,98504.48
2023-11-02T06:28:30.818Z,98499.74
2023-11-02T06:31:06.755Z,98494.47
2023-11-02T06:33:38.319Z,98489.05
2023-11-02T06:36:10.748Z,98485.86
2023-11-02T06:38:41.971Z,98482.59
2023-11-02T06:41:12.852Z,98479.80
2023-11-02T06:43:46.090Z,98470.86
2023-11-02T06:46:16.865Z,98469.65
2023-11-02T06:48:50.629Z,98467.48
2023-11-02T06:51:22.353Z,98469.30
2023-11-02T06:53:53.068Z,98458.94
2023-11-02T06:56:26.715Z,98458.13
2023-11-02T06:58:57.419Z,98457.09
2023-11-02T07:01:28.297Z,98457.27
2023-11-02T07:03:59.659Z,98447.54
2023-11-02T07:06:30.398Z,98438.73
2023-11-02T07:09:01.242Z,98434.88
2023-11-02T07:11:32.770Z,98424.81
2023-11-02T07:14:03.933Z,98424.08
2023-11-02T07:16:34.635Z,98420.50
2023-11-02T07:19:06.003Z,98413.77
2023-11-02T07:21:36.802Z,98414.59
2023-11-02T07:24:09.192Z,98406.68
2023-11-02T07:26:40.479Z,98403.34
2023-11-02T07:29:11.302Z,98381.91
2023-11-02T07:31:46.142Z,98365.27
2023-11-02T07:34:19.338Z,98356.05
2023-11-02T07:36:50.827Z,98355.81
2023-11-02T07:39:21.598Z,98348.66
2023-11-02T07:41:52.396Z,98358.09
2023-11-02T07:44:23.596Z,98348.02
2023-11-02T07:46:54.242Z,98344.67
2023-11-02T07:49:25.224Z,98327.53
2023-11-02T07:51:55.874Z,98319.14
2023-11-02T07:54:26.503Z,98317.67
2023-11-02T07:56:57.141Z,98316.02
2023-11-02T07:59:27.814Z,98314.33
2023-11-02T08:01:58.669Z,98319.80
2023-11-02T08:04:29.407Z,98313.22
2023-11-02T08:07:00.418Z,98308.10
2023-11-02T08:09:31.190Z,98302.59
2023-11-02T08:12:01.943Z,98307.75
2023-11-02T08:14:32.705Z,98313.45
2023-11-02T08:17:04.860Z,98322.90
2023-11-02T08:19:35.935Z,98315.86
2023-11-02T08:22:07.209Z,98310.02
2023-11-02T08:24:39.132Z,98300.34
2023-11-02T08:27:12.599Z,98294.48
2023-11-02T08:29:43.546Z,98289.87
2023-11-02T08:32:14.270Z,98283.90
2023-11-02T08:34:46.557Z,98277.71
2023-11-02T08:37:17.173Z,98283.02
2023-11-02T08:39:47.924Z,98278.09
2023-11-02T08:42:19.074Z,98279.36
2023-11-02T08:44:50.133Z,98273.69
2023-11-02T08:47:20.746Z,98275.23
2023-11-02T08:49:51.475Z,98264.13
2023-11-02T08:52:22.650Z,98257.25
2023-11-02T08:54:53.398Z,98247.44
2023-11-02T08:57:24.423Z,98247.77
2023-11-02T08:59:57.424Z,98242.38
2023-11-02T09:02:30.911Z,98244.16
2023-11-02T09:05:00.975Z,98235.77
2023-11-02T09:07:32.400Z,98239.65
2023-11-02T09:10:04.512Z,98234.08
2023-11-02T09:12:35.300Z,98226.84
2023-11-02T09:15:07.391Z,98216.79
2023-11-02T09:17:38.044Z,98201.25
2023-11-02T09:20:11.641Z,98192.60
2023-11-02T09:22:44.445Z,98181.39
2023-11-02T09:25:15.182Z,98170.61
2023-11-02T09:27:48.962Z,98179.91
2023-11-02T09:30:20.319Z,98168.45
2023-11-02T09:32:51.117Z,98163.33
2023-11-02T09:35:23.743Z,98148.79
2023-11-02T09:37:52.885Z,98148.08
2023-11-02T09:40:23.625Z,98142.10
2023-11-02T09:42:54.594Z,98122.32
2023-11-02T09:45:25.452Z,98127.88
2023-11-02T09:47:57.664Z,98122.98
2023-11-02T09:50:28.912Z,98122.74
2023-11-02T09:53:02.161Z,98105.73
2023-11-02T09:55:34.205Z,98107.33
2023-11-02T09:58:06.568Z,98098.55
2023-11-02T10:00:40.040Z,98094.02
2023-11-02T10:03:12.462Z,98072.09
2023-11-02T10:05:43.429Z,98079.00
2023-11-02T10:08:17.553Z,98086.17
2023-11-02T10:10:49.457Z,98083.22
2023-11-02T10:13:21.089Z,98081.95
2023-11-02T10:15:53.105Z,98072.23
2023-11-02T10:18:28.012Z,98074.60
2023-11-02T10:21:05.213Z,98071.59
2023-11-02T10:23:55.374Z,98063.23
2023-11-02T10:26:29.825Z,98060.56
2023-11-02T10:29:03.458Z,98047.96
2023-11-02T10:31:35.497Z,98033.09
2023-11-02T10:34:10.564Z,98028.45
2023-11-02T10:36:41.696Z,98020.11
2023-11-02T10:39:14.178Z,98006.80
2023-11-02T10:41:43.638Z,98004.88
2023-11-02T10:44:16.331Z,98011.91
2023-11-02T10:46:48.606Z,98008.04
2023-11-02T10:49:20.418Z,98006.55
2023-11-02T10:51:54.701Z,97999.23
2023-11-02T10:54:34.934Z,97990.27
2023-11-02T10:57:15.892Z,97978.59
2023-11-02T10:59:47.544Z,97970.83
2023-11-02T11:02:20.370Z,97965.34
2023-11-02T11:04:51.748Z,97960.35
2023-11-02T11:07:23.552Z,97959.23
2023-11-02T11:09:55.921Z,97957.65
2023-11-02T11:12:27.573Z,97953.10
2023-11-02T11:15:00.296Z,97954.34
2023-11-02T11:17:31.021Z,97948.27
2023-11-02T11:20:02.118Z,97948.88
2023-11-02T11:22:36.546Z,97953.31
2023-11-02T11:25:08.667Z,97959.05
2023-11-02T11:27:40.876Z,97960.32
2023-11-02T11:30:39.245Z,97952.98
2023-11-02T11:33:39.541Z,97951.91
2023-11-02T11:36:28.589Z,97940.95
2023-11-02T11:38:59.921Z,97939.06
2023-11-02T11:41:47.671Z,97932.42
2023-11-02T11:44:22.293Z,97922.46
2023-11-02T11:46:56.935Z,97920.39
2023-11-02T11:49:49.601Z,97914.83
2023-11-02T11:52:29.341Z,97915.31
2023-11-02T11:55:00.057Z,97908.81
2023-11-02T11:57:56.301Z,97912.16
2023-11-02T12:00:28.734Z,97901.30
2023-11-02T12:03:05.508Z,97890.51
2023-11-02T12:05:57.204Z,97892.91
2023-11-02T12:08:28.241Z,97897.65
2023-11-02T12:11:01.253Z,97903.23
2023-11-02T12:13:32.187Z,97903.25
2023-11-02T12:16:05.318Z,97899.92
2023-11-02T12:18:38.442Z,97887.35
2023-11-02T12:21:18.493Z,97885.78
2023-11-02T12:23:51.551Z,97883.66
2023-11-02T12:26:25.525Z,97887.86
2023-11-02T12:29:00.860Z,97899.23
2023-11-02T12:31:34.480Z,97891.66
2023-11-02T12:34:09.585Z,97894.15
2023-11-02T12:36:42.697Z,97896.81
2023-11-02T12:39:16.795Z,97895.13
2023-11-02T12:41:49.010Z,97884.46
2023-11-02T12:44:21.369Z,97867.59
2023-11-02T12:46:54.459Z,97868.35
2023-11-02T12:49:27.743Z,97874.44
2023-11-02T12:52:10.959Z,97874.23
2023-11-02T12:54:41.882Z,97873.55
2023-11-02T12:57:13.652Z,97872.09
2023-11-02T12:59:47.498Z,97870.27
2023-11-02T13:02:28.335Z,97862.52
2023-11-02T13:05:00.768Z,97859.86
2023-11-02T13:07:32.493Z,97851.67
2023-11-02T13:10:07.751Z,97857.48
2023-11-02T13:12:40.765Z,97848.24
2023-11-02T13:15:14.042Z,97847.23
2023-11-02T13:17:48.557Z,97845.56
2023-11-02T13:20:20.295Z,97854.94
2023-11-02T13:22:51.942Z,97858.02
2023-11-02T13:25:22.906Z,97855.00
2023-11-02T13:27:55.594Z,97852.20
2023-11-02T13:30:28.077Z,97841.64
2023-11-02T13:32:59.359Z,97849.02
2023-11-02T13:35:31.535Z,97843.13
2023-11-02T13:38:02.264Z,97839.70
2023-11-02T13:40:33.441Z,97837.02
2023-11-02T13:43:04.124Z,97833.05
2023-11-02T13:45:36.888Z,97836.84
2023-11-02T13:48:08.197Z,97839.61
2023-11-02T13:50:39.270Z,97837.73
2023-11-02T13:53:10.033Z,97834.16
2023-11-02T13:55:43.768Z,97828.71
2023-11-02T13:58:15.274Z,97824.11
2023-11-02T14:00:46.310Z,97819.54
2023-11-02T14:03:17.468Z,97823.01
2023-11-02T14:05:49.100Z,97820.20
2023-11-02T14:08:23.069Z,97826.46
2023-11-02T14:10:54.276Z,97829.73
2023-11-02T14:13:26.062Z,97831.34
2023-11-02T14:15:56.759Z,97829.77
2023-11-02T14:18:27.550Z,97829.73
2023-11-02T14:20:59.389Z,97832.88
2023-11-02T14:23:30.353Z,97831.64
2023-11-02T14:26:01.199Z,97828.46
2023-11-02T14:28:33.667Z,97812.23
2023-11-02T14:31:04.741Z,97816.01
2023-11-02T14:33:36.368Z,97805.69
2023-11-02T14:36:10.257Z,97802.39
2023-11-02T14:38:41.280Z,97801.14
2023-11-02T14:41:13.376Z,97801.34
2023-11-02T14:43:44.094Z,97796.11
2023-11-02T14:46:14.848Z,97792.16
2023-11-02T14:48:45.601Z,97786.92
2023-11-02T14:51:16.646Z,97787.02
2023-11-02T14:53:47.325Z,97779.09
2023-11-02T14:56:19.408Z,97775.67
2023-11-02T14:58:50.264Z,97772.41
2023-11-02T15:01:20.978Z,97770.88
2023-11-02T15:03:52.100Z,97771.80
2023-11-02T15:06:23.559Z,97773.88
2023-11-02T15:09:01.484Z,97773.48
2023-11-02T15:11:38.795Z,97773.65
2023-11-02T15:14:15.558Z,97771.58
2023-11-02T15:16:47.843Z,97771.77
2023-11-02T15:19:18.882Z,97772.91
2023-11-02T15:21:49.752Z,97774.70
2023-11-02T15:24:22.355Z,97774.90
2023-11-02T15:26:52.351Z,97787.56
2023-11-02T15:29:23.070Z,97802.52
2023-11-02T15:31:54.119Z,97801.70
2023-11-02T15:34:56.533Z,97796.13
2023-11-02T15:37:49.927Z,97793.23
2023-11-02T15:40:37.994Z,97800.16
2023-11-02T15:43:31.417Z,97787.70
2023-11-02T15:46:30.683Z,97780.23
2023-11-02T15:49:33.512Z,97778.64
2023-11-02T15:52:43.423Z,97783.04
2023-11-02T15:58:36.623Z,97783.64
2023-11-02T16:04:41.320Z,97770.70
2023-11-02T16:08:25.771Z,97770.08
2023-11-02T16:11:15.960Z,97758.59
2023-11-02T16:17:24.395Z,97774.63
2023-11-02T16:19:55.362Z,97779.45
2023-11-02T16:26:30.191Z,97794.89
2023-11-02T16:30:25.931Z,97804.99
2023-11-02T16:32:56.968Z,97808.75
2023-11-02T16:35:56.503Z,97814.42
2023-11-02T16:42:20.455Z,97820.67
2023-11-02T16:45:42.068Z,97820.88
2023-11-02T16:48:23.041Z,97820.16
2023-11-02T16:51:23.844Z,97800.83
2023-11-02T16:57:13.624Z,97819.05
2023-11-02T16:59:45.325Z,97820.47
2023-11-02T17:05:53.413Z,97816.22
2023-11-02T17:08:47.213Z,97816.52
2023-11-02T17:11:29.073Z,97818.42
2023-11-02T17:14:32.429Z,97813.45
2023-11-02T17:17:11.036Z,97809.59
2023-11-02T17:19:45.056Z,97802.04
2023-11-02T17:22:24.929Z,97790.70
2023-11-02T17:24:56.260Z,97787.41
2023-11-02T17:27:27.097Z,97779.12
2023-11-02T17:29:58.882Z,97772.14
2023-11-02T17:32:57.705Z,97772.41
2023-11-02T17:35:53.693Z,97763.02
2023-11-02T17:38:34.201Z,97757.98
2023-11-02T17:41:07.947Z,97755.95
2023-11-02T17:43:41.112Z,97753.94
2023-11-02T17:46:15.858Z,97747.84
2023-11-02T17:49:20.884Z,97735.36
2023-11-02T17:51:54.794Z,97718.61
2023-11-02T17:55:12.024Z,97690.80
2023-11-02T17:58:17.349Z,97704.13
2023-11-02T18:04:02.903Z,97687.02
2023-11-02T18:06:34.076Z,97698.89
2023-11-02T18:09:05.691Z,97705.20
2023-11-02T18:11:36.385Z,97699.67
2023-11-02T18:14:07.428Z,97695.14
2023-11-02T18:16:38.406Z,97688.37
2023-11-02T18:19:09.156Z,97662.89
2023-11-02T18:21:40.726Z,97664.77
2023-11-02T18:24:12.491Z,97669.58
2023-11-02T18:26:44.027Z,97682.27
2023-11-02T18:29:14.846Z,97684.09
2023-11-02T18:31:45.646Z,97688.80
2023-11-02T18:34:17.863Z,97680.13
2023-11-02T18:36:49.668Z,97682.41
2023-11-02T18:39:20.370Z,97678.95
2023-11-02T18:41:51.325Z,97666.59
2023-11-02T18:44:22.223Z,97658.14
2023-11-02T18:46:53.077Z,97651.25
2023-11-02T18:49:24.655Z,97646.81
2023-11-02T18:51:55.636Z,97647.93
2023-11-02T18:54:28.184Z,97646.88
2023-11-02T18:56:58.884Z,97643.74
2023-11-02T18:59:29.546Z,97634.69
2023-11-02T19:02:00.237Z,97627.38
2023-11-02T19:04:31.237Z,97609.86
2023-11-02T19:07:01.942Z,97595.10
2023-11-02T19:09:32.725Z,97594.00
2023-11-02T19:12:03.519Z,97601.11
2023-11-02T19:14:35.619Z,97604.14
2023-11-02T19:17:07.018Z,97608.31
2023-11-02T19:19:39.366Z,97611.64
2023-11-02T19:22:10.554Z,97612.71
2023-11-02T19:24:44.449Z,97609.98
2023-11-02T19:27:17.105Z,97602.06
2023-11-02T19:29:48.778Z,97598.41
2023-11-02T19:32:21.475Z,97598.41
2023-11-02T19:34:52.620Z,97601.94
2023-11-02T19:37:23.430Z,97611.58
2023-11-02T19:39:54.497Z,97614.86
2023-11-02T19:42:25.439Z,97617.75
2023-11-02T19:44:56.245Z,97615.78
2023-11-02T19:47:27.002Z,97614.34
2023-11-02T19:49:58.027Z,97618.09
2023-11-02T19:52:28.763Z,97618.15
2023-11-02T19:54:59.545Z,97624.15
2023-11-02T19:57:30.425Z,97633.10
2023-11-02T20:00:01.373Z,97633.56
2023-11-02T20:02:32.062Z,97632.41
2023-11-02T20:05:04.172Z,97629.20
2023-11-02T20:07:35.477Z,97627.40
2023-11-02T20:10:07.989Z,97624.15
2023-11-02T20:12:40.048Z,97621.45
2023-11-02T20:15:14.146Z,97621.98
2023-11-02T20:17:44.961Z,97611.77
2023-11-02T20:20:16.527Z,97604.91
2023-11-02T20:22:47.349Z,97598.69
2023-11-02T20:25:19.692Z,97592.29
2023-11-02T20:27:50.435Z,97590.66
2023-11-02T20:30:21.247Z,97590.42
2023-11-02T20:32:51.895Z,97593.84
2023-11-02T20:35:22.627Z,97593.84
2023-11-02T20:37:53.280Z,97589.17
2023-11-02T20:40:23.912Z,97586.73
2023-11-02T20:42:54.847Z,97583.89
2023-11-02T20:45:25.687Z,97578.17
2023-11-02T20:47:56.580Z,97584.61
2023-11-02T20:50:27.612Z,97613.04
2023-11-02T20:52:58.329Z,97631.34
2023-11-02T20:55:29.005Z,97626.63
2023-11-02T20:58:00.761Z,97615.36
2023-11-02T21:00:39.949Z,97606.77
2023-11-02T21:03:18.454Z,97605.23
2023-11-02T21:05:49.946Z,97610.20
2023-11-02T21:08:20.874Z,97610.13
2023-11-02T21:10:51.632Z,97615.88
2023-11-02T21:13:22.981Z,97620.78
2023-11-02T21:15:53.732Z,97608.74
2023-11-02T21:18:25.684Z,97612.66
2023-11-02T21:20:56.749Z,97619.09
2023-11-02T21:23:27.546Z,97621.86
2023-11-02T21:25:58.453Z,97626.39
2023-11-02T21:28:29.432Z,97629.85
2023-11-02T21:31:00.265Z,97635.42
2023-11-02T21:33:31.260Z,97635.02
2023-11-02T21:36:02.699Z,97635.51
2023-11-02T21:38:33.521Z,97623.70
2023-11-02T21:41:04.729Z,97620.55
2023-11-02T21:43:35.570Z,97621.88
2023-11-02T21:46:07.042Z,97626.76
2023-11-02T21:48:37.906Z,97626.98
2023-11-02T21:51:09.269Z,97619.45
2023-11-02T21:53:40.015Z,97604.48
2023-11-02T21:56:11.574Z,97595.29
2023-11-02T21:58:42.757Z,97594.63
2023-11-02T22:01:16.847Z,97600.82
2023-11-02T22:03:49.778Z,97598.66
2023-11-02T22:06:21.710Z,97584.38
2023-11-02T22:08:52.516Z,97588.30
2023-11-02T22:11:23.265Z,97608.63
2023-11-02T22:13:54.102Z,97618.05
2023-11-02T22:16:24.878Z,97624.36
2023-11-02T22:18:56.124Z,97634.14
2023-11-02T22:21:28.325Z,97641.29
2023-11-02T22:23:59.426Z,97641.26
2023-11-02T22:26:30.424Z,97622.71
2023-11-02T22:29:01.702Z,97599.80
2023-11-02T22:31:32.445Z,97593.73
2023-11-02T22:34:03.532Z,97575.84
2023-11-02T22:36:35.341Z,97563.56
2023-11-02T22:39:07.664Z,97556.30
2023-11-02T22:41:44.626Z,97553.57
2023-11-02T22:44:15.785Z,97534.40
2023-11-02T22:46:46.671Z,97528.09
2023-11-02T22:49:17.385Z,97531.03
2023-11-02T22:51:50.590Z,97528.92
2023-11-02T22:54:21.559Z,97532.75
2023-11-02T22:56:52.252Z,97535.85
2023-11-02T22:59:22.915Z,97531.30
2023-11-02T23:01:57.483Z,97530.70
2023-11-02T23:04:28.351Z,97546.46
2023-11-02T23:06:59.314Z,97541.00
2023-11-02T23:09:30.387Z,97517.06
2023-11-02T23:12:01.617Z,97488.35
2023-11-02T23:14:32.402Z,97460.95
2023-11-02T23:17:03.372Z,97453.80
2023-11-02T23:19:34.103Z,97447.33
2023-11-02T23:22:06.030Z,97453.44
2023-11-02T23:24:37.202Z,97474.13
2023-11-02T23:27:08.368Z,97497.80
2023-11-02T23:29:39.146Z,97508.67
2023-11-02T23:32:10.717Z,97527.02
2023-11-02T23:34:41.842Z,97529.48
2023-11-02T23:37:12.855Z,97527.92
2023-11-02T23:39:43.639Z,97518.23
2023-11-02T23:42:15.950Z,97518.29
2023-11-02T23:44:47.347Z,97513.77
2023-11-02T23:47:17.982Z,97514.30
2023-11-02T23:49:49.092Z,97489.42
2023-11-02T23:52:20.323Z,97442.64
2023-11-02T23:54:51.093Z,97409.92
2023-11-02T23:57:21.908Z,97401.45
2023-11-02T23:59:52.552Z,97405.65
